createdAt,value
2022-12-18T00:01:34.250Z,98910.53
2022-12-18T00:04:02.019Z,98905.88
2022-12-18T00:06:29.450Z,98914.34
2022-12-18T00:08:56.804Z,98912.38
2022-12-18T00:11:24.767Z,98921.19
2022-12-18T00:13:51.846Z,98924.59
2022-12-18T00:16:22.763Z,98932.19
2022-12-18T00:18:50.536Z,98926.25
2022-12-18T00:21:17.424Z,98926.47
2022-12-18T00:23:44.585Z,98937.22
2022-12-18T00:26:13.112Z,98933.72
2022-12-18T00:28:39.561Z,98933.03
2022-12-18T00:31:10.630Z,98934.78
2022-12-18T00:33:37.758Z,98951.72
2022-12-18T00:36:05.848Z,98952.59
2022-12-18T00:38:32.629Z,98961.28
2022-12-18T00:40:59.297Z,98962.28
2022-12-18T00:43:26.027Z,98960.09
2022-12-18T00:45:53.186Z,98971.22
2022-12-18T00:48:19.757Z,98966.94
2022-12-18T00:50:46.196Z,98968.34
2022-12-18T00:53:12.841Z,98972.53
2022-12-18T00:55:43.120Z,98973.19
2022-12-18T00:58:10.327Z,98969.59
2022-12-18T01:00:36.865Z,98971.06
2022-12-18T01:03:03.851Z,98967.91
2022-12-18T01:05:30.354Z,98971.53
2022-12-18T01:07:57.520Z,98979.56
2022-12-18T01:10:24.571Z,98977.41
2022-12-18T01:12:51.378Z,98982.69
2022-12-18T01:15:18.124Z,98997.09
2022-12-18T01:17:44.665Z,98984.34
2022-12-18T01:20:12.265Z,98989.00
2022-12-18T01:22:39.118Z,98991.81
2022-12-18T01:25:07.725Z,98988.75
2022-12-18T01:27:34.505Z,98999.09
2022-12-18T01:30:04.044Z,98997.41
2022-12-18T01:32:31.445Z,98993.16
2022-12-18T01:34:58.146Z,99002.28
2022-12-18T01:37:25.321Z,99005.69
2022-12-18T01:39:55.177Z,99003.63
2022-12-18T01:42:22.164Z,99009.47
2022-12-18T01:45:07.162Z,99014.22
2022-12-18T01:47:36.772Z,99019.88
2022-12-18T01:50:26.908Z,99014.75
2022-12-18T01:52:55.150Z,99026.47
2022-12-18T01:55:23.286Z,99026.31
2022-12-18T01:57:50.786Z,99026.06
2022-12-18T02:00:20.157Z,99028.75
2022-12-18T02:02:47.729Z,99029.78
2022-12-18T02:05:18.798Z,99034.94
2022-12-18T02:07:58.744Z,99033.31
2022-12-18T02:10:30.085Z,99029.69
2022-12-18T02:13:21.485Z,99031.19
2022-12-18T02:15:55.724Z,99039.22
2022-12-18T02:18:29.472Z,99031.78
2022-12-18T02:21:07.826Z,99041.72
2022-12-18T02:23:34.247Z,99041.47
2022-12-18T02:26:16.281Z,99044.44
2022-12-18T02:28:46.617Z,99049.50
2022-12-18T02:31:16.692Z,99048.53
2022-12-18T02:33:45.005Z,99056.88
2022-12-18T02:36:13.956Z,99048.38
2022-12-18T02:38:43.389Z,99041.50
2022-12-18T02:41:14.023Z,99049.66
2022-12-18T02:43:41.431Z,99037.38
2022-12-18T02:46:37.877Z,99038.97
2022-12-18T02:49:18.599Z,99040.50
2022-12-18T02:51:54.375Z,99046.63
2022-12-18T02:54:32.839Z,99051.84
2022-12-18T02:57:02.799Z,99058.09
2022-12-18T02:59:38.680Z,99068.13
2022-12-18T03:02:10.237Z,99065.66
2022-12-18T03:04:40.075Z,99056.84
2022-12-18T03:07:09.939Z,99074.59
2022-12-18T03:09:39.579Z,99070.13
2022-12-18T03:12:25.513Z,99070.78
2022-12-18T03:14:57.726Z,99074.31
2022-12-18T03:17:26.391Z,99077.84
2022-12-18T03:19:54.469Z,99071.81
2022-12-18T03:22:22.008Z,99073.09
2022-12-18T03:24:52.505Z,99077.22
2022-12-18T03:27:21.284Z,99067.09
2022-12-18T03:29:51.640Z,99056.59
2022-12-18T03:32:25.958Z,99062.44
2022-12-18T03:34:54.583Z,99062.56
2022-12-18T03:37:23.103Z,99066.44
2022-12-18T03:39:49.567Z,99080.28
2022-12-18T03:42:23.538Z,99090.00
2022-12-18T03:45:04.117Z,99079.38
2022-12-18T03:47:35.650Z,99075.44
2022-12-18T03:50:12.848Z,99074.34
2022-12-18T03:52:46.832Z,99077.00
2022-12-18T03:55:13.876Z,99090.88
2022-12-18T03:57:43.180Z,99089.16
2022-12-18T04:00:12.761Z,99096.47
2022-12-18T04:02:54.982Z,99094.56
2022-12-18T04:05:29.484Z,99103.34
2022-12-18T04:07:57.213Z,99102.47
2022-12-18T04:10:23.765Z,99105.16
2022-12-18T04:12:51.045Z,99101.34
2022-12-18T04:15:17.855Z,99103.06
2022-12-18T04:17:50.865Z,99100.06
2022-12-18T04:20:20.900Z,99094.56
2022-12-18T04:22:48.172Z,99101.44
2022-12-18T04:25:15.140Z,99108.06
2022-12-18T04:27:53.585Z,99109.09
2022-12-18T04:30:20.077Z,99121.34
2022-12-18T04:32:52.067Z,99130.28
2022-12-18T04:35:19.863Z,99139.47
2022-12-18T04:37:47.092Z,99135.72
2022-12-18T04:40:13.779Z,99132.09
2022-12-18T04:42:43.851Z,99130.91
2022-12-18T04:45:10.503Z,99142.78
2022-12-18T04:47:37.218Z,99144.38
2022-12-18T04:50:03.883Z,99149.66
2022-12-18T04:52:30.400Z,99148.81
2022-12-18T04:54:56.805Z,99155.00
2022-12-18T04:57:23.285Z,99154.59
2022-12-18T04:59:49.734Z,99161.72
2022-12-18T05:02:16.288Z,99158.09
2022-12-18T05:04:42.769Z,99163.34
2022-12-18T05:07:09.196Z,99154.44
2022-12-18T05:09:35.740Z,99159.88
2022-12-18T05:12:02.228Z,99166.94
2022-12-18T05:14:30.128Z,99168.06
2022-12-18T05:17:00.631Z,99165.81
2022-12-18T05:19:27.565Z,99178.44
2022-12-18T05:21:54.017Z,99174.66
2022-12-18T05:24:20.560Z,99179.69
2022-12-18T05:26:47.399Z,99186.38
2022-12-18T05:29:14.207Z,99189.81
2022-12-18T05:31:40.953Z,99190.84
2022-12-18T05:34:09.506Z,99193.91
2022-12-18T05:36:37.053Z,99199.25
2022-12-18T05:39:03.766Z,99193.78
2022-12-18T05:41:30.895Z,99196.16
2022-12-18T05:43:57.421Z,99196.50
2022-12-18T05:46:25.261Z,99201.00
2022-12-18T05:48:52.093Z,99196.91
2022-12-18T05:51:19.866Z,99205.81
2022-12-18T05:53:46.424Z,99198.56
2022-12-18T05:56:17.836Z,99196.91
2022-12-18T05:58:44.472Z,99194.47
2022-12-18T06:01:22.052Z,99207.63
2022-12-18T06:03:48.606Z,99211.59
2022-12-18T06:06:19.900Z,99207.22
2022-12-18T06:08:46.823Z,99218.59
2022-12-18T06:11:13.572Z,99214.50
2022-12-18T06:13:40.642Z,99221.72
2022-12-18T06:16:07.560Z,99216.13
2022-12-18T06:18:34.084Z,99223.41
2022-12-18T06:21:01.200Z,99226.88
2022-12-18T06:23:27.816Z,99230.19
2022-12-18T06:25:54.753Z,99235.28
2022-12-18T06:28:21.264Z,99248.53
2022-12-18T06:30:49.190Z,99249.31
2022-12-18T06:33:16.213Z,99251.72
2022-12-18T06:35:42.741Z,99255.84
2022-12-18T06:38:09.172Z,99255.94
2022-12-18T06:40:37.548Z,99263.03
2022-12-18T06:43:03.962Z,99261.94
2022-12-18T06:45:30.477Z,99255.34
2022-12-18T06:47:57.036Z,99265.09
2022-12-18T06:50:23.901Z,99257.09
2022-12-18T06:52:50.358Z,99272.63
2022-12-18T06:55:16.989Z,99276.19
2022-12-18T06:57:43.399Z,99285.69
2022-12-18T07:00:10.087Z,99286.81
2022-12-18T07:02:36.666Z,99288.22
2022-12-18T07:05:08.967Z,99282.72
2022-12-18T07:07:37.268Z,99279.03
2022-12-18T07:10:04.214Z,99284.59
2022-12-18T07:12:30.725Z,99289.78
2022-12-18T07:14:57.245Z,99293.47
2022-12-18T07:17:23.742Z,99287.88
2022-12-18T07:19:50.226Z,99295.00
2022-12-18T07:22:16.686Z,99294.81
2022-12-18T07:24:43.124Z,99304.25
2022-12-18T07:27:09.811Z,99298.63
2022-12-18T07:29:36.916Z,99303.25
2022-12-18T07:32:04.560Z,99307.13
2022-12-18T07:34:31.026Z,99325.22
2022-12-18T07:36:57.498Z,99322.69
2022-12-18T07:39:23.900Z,99316.41
2022-12-18T07:42:10.302Z,99314.47
2022-12-18T07:44:40.028Z,99329.78
2022-12-18T07:47:11.641Z,99324.91
2022-12-18T07:49:38.676Z,99307.81
2022-12-18T07:52:05.249Z,99325.25
2022-12-18T07:54:31.696Z,99336.03
2022-12-18T07:56:58.211Z,99328.72
2022-12-18T07:59:24.688Z,99339.16
2022-12-18T08:01:51.258Z,99341.28
2022-12-18T08:04:17.869Z,99342.91
2022-12-18T08:06:47.765Z,99342.53
2022-12-18T08:09:14.973Z,99348.28
2022-12-18T08:11:41.408Z,99345.31
2022-12-18T08:14:07.889Z,99335.56
2022-12-18T08:16:34.437Z,99338.06
2022-12-18T08:19:01.038Z,99334.06
2022-12-18T08:21:28.888Z,99347.75
2022-12-18T08:23:56.304Z,99351.28
2022-12-18T08:26:23.317Z,99350.66
2022-12-18T08:28:50.447Z,99344.84
2022-12-18T08:31:17.375Z,99334.16
2022-12-18T08:33:44.411Z,99326.66
2022-12-18T08:36:11.564Z,99326.38
2022-12-18T08:38:38.011Z,99332.88
2022-12-18T08:41:09.743Z,99342.06
2022-12-18T08:43:54.827Z,99346.97
2022-12-18T08:46:22.478Z,99349.88
2022-12-18T08:48:49.353Z,99352.91
2022-12-18T08:51:17.126Z,99353.66
2022-12-18T08:53:44.215Z,99352.63
2022-12-18T08:56:11.130Z,99349.09
2022-12-18T08:58:37.742Z,99346.44
2022-12-18T09:01:05.181Z,99351.47
2022-12-18T09:03:32.049Z,99355.47
2022-12-18T09:05:58.581Z,99362.88
2022-12-18T09:08:25.008Z,99355.28
2022-12-18T09:10:51.434Z,99360.63
2022-12-18T09:13:18.624Z,99354.63
2022-12-18T09:15:48.877Z,99358.19
2022-12-18T09:18:16.480Z,99361.78
2022-12-18T09:20:43.226Z,99365.66
2022-12-18T09:23:10.144Z,99377.28
2022-12-18T09:25:37.199Z,99381.50
2022-12-18T09:28:04.717Z,99372.25
2022-12-18T09:30:31.408Z,99377.22
2022-12-18T09:32:58.712Z,99362.94
2022-12-18T09:35:25.134Z,99369.53
2022-12-18T09:37:51.637Z,99376.41
2022-12-18T09:40:20.206Z,99368.56
2022-12-18T09:42:48.776Z,99377.09
2022-12-18T09:45:15.882Z,99360.38
2022-12-18T09:47:44.073Z,99371.88
2022-12-18T09:50:17.501Z,99362.03
2022-12-18T09:52:50.302Z,99357.88
2022-12-18T09:55:25.181Z,99366.81
2022-12-18T09:57:57.352Z,99357.16
2022-12-18T10:00:25.004Z,99364.00
2022-12-18T10:02:55.237Z,99360.06
2022-12-18T10:05:30.052Z,99365.00
2022-12-18T10:08:02.917Z,99362.31
2022-12-18T10:10:40.740Z,99356.34
2022-12-18T10:13:19.352Z,99353.22
2022-12-18T10:15:51.674Z,99347.22
2022-12-18T10:18:27.806Z,99358.53
2022-12-18T10:20:57.161Z,99353.00
2022-12-18T10:23:23.584Z,99356.34
2022-12-18T10:25:58.962Z,99354.34
2022-12-18T10:28:26.336Z,99356.34
2022-12-18T10:30:52.940Z,99356.59
2022-12-18T10:33:24.109Z,99359.47
2022-12-18T10:35:52.901Z,99349.34
2022-12-18T10:38:20.109Z,99350.03
2022-12-18T10:40:55.963Z,99358.69
2022-12-18T10:43:26.717Z,99359.06
2022-12-18T10:46:02.193Z,99353.34
2022-12-18T10:48:29.106Z,99354.06
2022-12-18T10:51:12.207Z,99350.16
2022-12-18T10:53:41.096Z,99342.09
2022-12-18T10:56:07.955Z,99339.03
2022-12-18T10:58:38.879Z,99333.72
2022-12-18T11:01:11.745Z,99333.97
2022-12-18T11:03:38.550Z,99338.50
2022-12-18T11:06:11.240Z,99337.75
2022-12-18T11:08:38.622Z,99343.94
2022-12-18T11:11:08.253Z,99346.56
2022-12-18T11:13:34.801Z,99356.47
2022-12-18T11:16:01.449Z,99352.91
2022-12-18T11:18:29.757Z,99348.59
2022-12-18T11:21:09.032Z,99334.66
2022-12-18T11:23:36.237Z,99334.06
2022-12-18T11:26:04.272Z,99337.69
2022-12-18T11:28:30.748Z,99334.44
2022-12-18T11:31:13.674Z,99339.81
2022-12-18T11:33:58.489Z,99336.72
2022-12-18T11:36:32.002Z,99330.53
2022-12-18T11:39:00.418Z,99321.84
2022-12-18T11:42:01.222Z,99322.63
2022-12-18T11:44:29.464Z,99325.41
2022-12-18T11:47:09.297Z,99317.63
2022-12-18T11:49:37.080Z,99309.25
2022-12-18T11:52:19.339Z,99312.59
2022-12-18T11:54:46.147Z,99312.50
2022-12-18T11:57:22.461Z,99314.91
2022-12-18T11:59:58.064Z,99311.78
2022-12-18T12:02:30.790Z,99307.56
2022-12-18T12:05:12.777Z,99320.09
2022-12-18T12:07:47.198Z,99312.31
2022-12-18T12:10:27.840Z,99316.22
2022-12-18T12:13:00.038Z,99313.34
2022-12-18T12:15:26.489Z,99320.47
2022-12-18T12:17:52.918Z,99314.25
2022-12-18T12:20:19.328Z,99325.69
2022-12-18T12:23:02.424Z,99321.41
2022-12-18T12:25:34.149Z,99317.94
2022-12-18T12:28:07.300Z,99324.53
2022-12-18T12:30:52.604Z,99321.41
2022-12-18T12:33:19.170Z,99322.06
2022-12-18T12:35:53.916Z,99315.25
2022-12-18T12:38:31.446Z,99324.22
2022-12-18T12:41:03.209Z,99310.41
2022-12-18T12:43:33.318Z,99316.63
2022-12-18T12:46:12.937Z,99319.44
2022-12-18T12:48:45.806Z,99313.97
2022-12-18T12:51:21.155Z,99317.50
2022-12-18T12:53:48.973Z,99317.25
2022-12-18T12:56:16.953Z,99318.34
2022-12-18T12:59:02.564Z,99319.03
2022-12-18T13:01:50.437Z,99326.28
2022-12-18T13:04:28.801Z,99320.09
2022-12-18T13:06:55.667Z,99314.69
2022-12-18T13:09:22.182Z,99313.66
2022-12-18T13:12:07.298Z,99307.78
2022-12-18T13:14:35.826Z,99316.13
2022-12-18T13:17:20.956Z,99322.19
2022-12-18T13:19:51.995Z,99324.47
2022-12-18T13:22:38.652Z,99329.75
2022-12-18T13:25:25.421Z,99322.56
2022-12-18T13:28:00.544Z,99331.97
2022-12-18T13:30:33.360Z,99334.38
2022-12-18T13:33:15.275Z,99341.50
2022-12-18T13:35:51.946Z,99346.72
2022-12-18T13:38:38.190Z,99354.72
2022-12-18T13:41:19.698Z,99347.53
2022-12-18T13:43:47.480Z,99345.63
2022-12-18T13:46:23.175Z,99344.88
2022-12-18T13:48:56.083Z,99340.75
2022-12-18T13:51:23.319Z,99348.03
2022-12-18T13:53:55.135Z,99355.41
2022-12-18T13:56:26.080Z,99350.66
2022-12-18T13:59:12.112Z,99351.69
2022-12-18T14:01:43.089Z,99352.00
2022-12-18T14:04:18.718Z,99347.25
2022-12-18T14:06:46.412Z,99355.09
2022-12-18T14:09:21.306Z,99351.75
2022-12-18T14:11:49.426Z,99347.69
2022-12-18T14:14:17.502Z,99351.91
2022-12-18T14:16:44.252Z,99347.06
2022-12-18T14:19:18.819Z,99349.56
2022-12-18T14:21:49.081Z,99355.25
2022-12-18T14:24:17.583Z,99358.22
2022-12-18T14:26:46.872Z,99357.81
2022-12-18T14:29:22.756Z,99365.72
2022-12-18T14:32:18.709Z,99368.06
2022-12-18T14:34:49.853Z,99368.66
2022-12-18T14:37:22.406Z,99367.88
2022-12-18T14:40:01.251Z,99361.72
2022-12-18T14:42:31.170Z,99370.69
2022-12-18T14:45:16.157Z,99364.47
2022-12-18T14:47:44.158Z,99369.19
2022-12-18T14:50:15.011Z,99375.31
2022-12-18T14:52:41.490Z,99379.78
2022-12-18T14:55:15.780Z,99389.25
2022-12-18T14:57:44.364Z,99374.59
2022-12-18T15:00:19.281Z,99374.59
2022-12-18T15:02:56.314Z,99374.13
2022-12-18T15:05:30.045Z,99373.75
2022-12-18T15:07:57.823Z,99375.41
2022-12-18T15:10:25.701Z,99388.16
2022-12-18T15:12:57.996Z,99383.88
2022-12-18T15:15:36.706Z,99393.41
2022-12-18T15:18:05.158Z,99390.44
2022-12-18T15:20:33.137Z,99396.25
2022-12-18T15:22:59.644Z,99389.75
2022-12-18T15:25:46.460Z,99388.31
2022-12-18T15:28:45.476Z,99392.75
2022-12-18T15:31:15.897Z,99401.44
2022-12-18T15:33:53.866Z,99396.66
2022-12-18T15:36:26.363Z,99395.13
2022-12-18T15:39:02.158Z,99403.28
2022-12-18T15:41:33.412Z,99414.38
2022-12-18T15:44:01.837Z,99415.97
2022-12-18T15:46:29.796Z,99414.47
2022-12-18T15:49:01.856Z,99413.59
2022-12-18T15:51:32.245Z,99411.69
2022-12-18T15:54:03.047Z,99412.09
2022-12-18T15:56:48.156Z,99413.59
2022-12-18T15:59:15.834Z,99410.38
2022-12-18T16:01:44.259Z,99419.31
2022-12-18T16:04:14.294Z,99425.06
2022-12-18T16:07:05.655Z,99425.25
2022-12-18T16:09:27.585Z,99424.81
2022-12-18T16:11:54.097Z,99428.75
2022-12-18T16:14:20.520Z,99430.44
2022-12-18T16:16:48.385Z,99446.09
2022-12-18T16:19:15.141Z,99446.00
2022-12-18T16:21:41.680Z,99442.59
2022-12-18T16:24:14.053Z,99441.44
2022-12-18T16:26:42.865Z,99455.22
2022-12-18T16:29:09.796Z,99448.78
2022-12-18T16:31:37.098Z,99451.50
2022-12-18T16:34:22.717Z,99441.03
2022-12-18T16:36:50.820Z,99442.94
2022-12-18T16:39:17.689Z,99443.69
2022-12-18T16:41:46.641Z,99434.84
2022-12-18T16:44:13.286Z,99437.13
2022-12-18T16:46:49.141Z,99433.16
2022-12-18T16:49:16.587Z,99433.78
2022-12-18T16:51:44.742Z,99434.13
2022-12-18T16:54:17.451Z,99427.88
2022-12-18T16:56:46.799Z,99433.63
2022-12-18T16:59:13.732Z,99439.50
2022-12-18T17:01:44.221Z,99427.28
2022-12-18T17:04:11.650Z,99442.88
2022-12-18T17:06:41.664Z,99436.78
2022-12-18T17:09:10.734Z,99429.72
2022-12-18T17:11:37.602Z,99431.59
2022-12-18T17:14:10.307Z,99426.44
2022-12-18T17:16:37.655Z,99422.28
2022-12-18T17:19:08.004Z,99426.53
2022-12-18T17:21:37.460Z,99434.69
2022-12-18T17:24:05.295Z,99440.88
2022-12-18T17:26:31.961Z,99441.72
2022-12-18T17:28:58.960Z,99444.56
2022-12-18T17:31:26.847Z,99455.00
2022-12-18T17:33:53.780Z,99449.66
2022-12-18T17:36:23.736Z,99445.38
2022-12-18T17:38:56.562Z,99442.16
2022-12-18T17:41:29.466Z,99449.69
2022-12-18T17:44:04.298Z,99454.09
2022-12-18T17:46:32.187Z,99445.72
2022-12-18T17:49:03.146Z,99453.19
2022-12-18T17:51:32.377Z,99454.25
2022-12-18T17:54:01.194Z,99453.34
2022-12-18T17:56:28.038Z,99460.22
2022-12-18T17:58:55.245Z,99463.84
2022-12-18T18:01:23.630Z,99465.38
2022-12-18T18:03:53.482Z,99471.38
2022-12-18T18:06:20.961Z,99476.44
2022-12-18T18:08:48.023Z,99478.91
2022-12-18T18:11:35.304Z,99482.75
2022-12-18T18:14:03.076Z,99481.72
2022-12-18T18:16:30.803Z,99485.34
2022-12-18T18:18:58.342Z,99483.47
2022-12-18T18:21:24.944Z,99481.22
2022-12-18T18:23:52.425Z,99484.22
2022-12-18T18:26:21.068Z,99478.63
2022-12-18T18:28:47.693Z,99483.03
2022-12-18T18:31:14.208Z,99482.13
2022-12-18T18:33:41.059Z,99478.66
2022-12-18T18:36:09.836Z,99479.34
2022-12-18T18:38:36.339Z,99483.81
2022-12-18T18:41:03.799Z,99483.97
2022-12-18T18:43:30.549Z,99480.88
2022-12-18T18:46:01.452Z,99481.75
2022-12-18T18:48:30.795Z,99482.75
2022-12-18T18:51:00.313Z,99482.75
2022-12-18T18:53:28.388Z,99481.75
2022-12-18T18:56:34.528Z,99477.59
2022-12-18T18:58:44.155Z,99479.28
2022-12-18T19:01:12.120Z,99480.19
2022-12-18T19:03:39.226Z,99484.41
2022-12-18T19:06:07.087Z,99487.34
2022-12-18T19:08:34.679Z,99476.69
2022-12-18T19:11:01.777Z,99484.47
2022-12-18T19:13:29.764Z,99486.75
2022-12-18T19:16:04.271Z,99481.09
2022-12-18T19:18:31.253Z,99484.56
2022-12-18T19:20:58.821Z,99489.16
2022-12-18T19:23:25.512Z,99493.56
2022-12-18T19:26:04.215Z,99500.75
2022-12-18T19:28:38.671Z,99498.28
2022-12-18T19:31:07.256Z,99503.81
2022-12-18T19:33:43.129Z,99498.03
2022-12-18T19:36:11.838Z,99490.75
2022-12-18T19:38:39.018Z,99491.53
2022-12-18T19:41:09.307Z,99496.03
2022-12-18T19:43:39.541Z,99494.22
2022-12-18T19:46:07.005Z,99494.38
2022-12-18T19:48:34.159Z,99495.63
2022-12-18T19:51:07.580Z,99501.03
2022-12-18T19:53:34.255Z,99496.44
2022-12-18T19:56:07.736Z,99497.78
2022-12-18T19:58:34.313Z,99502.50
2022-12-18T20:01:00.867Z,99503.03
2022-12-18T20:03:32.357Z,99495.50
2022-12-18T20:06:13.023Z,99499.34
2022-12-18T20:08:39.707Z,99492.13
2022-12-18T20:11:06.635Z,99502.00
2022-12-18T20:13:33.288Z,99506.41
2022-12-18T20:15:59.745Z,99510.81
2022-12-18T20:18:26.243Z,99515.41
2022-12-18T20:20:52.960Z,99514.72
2022-12-18T20:23:22.824Z,99516.22
2022-12-18T20:25:49.554Z,99516.00
2022-12-18T20:28:15.989Z,99512.63
2022-12-18T20:30:42.451Z,99515.25
2022-12-18T20:33:09.087Z,99510.81
2022-12-18T20:35:35.565Z,99513.34
2022-12-18T20:38:02.575Z,99499.16
2022-12-18T20:40:30.624Z,99503.19
2022-12-18T20:42:57.050Z,99498.75
2022-12-18T20:45:23.504Z,99494.19
2022-12-18T20:47:50.005Z,99485.16
2022-12-18T20:50:16.485Z,99489.47
2022-12-18T20:52:42.957Z,99499.41
2022-12-18T20:55:09.481Z,99503.25
2022-12-18T20:57:35.974Z,99501.44
2022-12-18T21:00:05.492Z,99506.06
2022-12-18T21:02:33.904Z,99505.72
2022-12-18T21:05:00.520Z,99503.19
2022-12-18T21:07:27.452Z,99502.88
2022-12-18T21:09:54.204Z,99502.94
2022-12-18T21:12:42.604Z,99506.41
2022-12-18T21:15:24.038Z,99511.84
2022-12-18T21:17:54.903Z,99506.25
2022-12-18T21:20:21.540Z,99510.72
2022-12-18T21:22:49.232Z,99512.72
2022-12-18T21:25:15.854Z,99506.41
2022-12-18T21:27:42.324Z,99494.19
2022-12-18T21:30:08.997Z,99497.09
2022-12-18T21:32:35.471Z,99498.53
2022-12-18T21:35:01.994Z,99490.44
2022-12-18T21:37:28.405Z,99486.88
2022-12-18T21:39:54.893Z,99495.59
2022-12-18T21:42:40.037Z,99495.59
2022-12-18T21:45:06.757Z,99495.59
2022-12-18T21:47:33.173Z,99497.31
2022-12-18T21:49:59.673Z,99501.13
2022-12-18T21:52:31.451Z,99494.09
2022-12-18T21:55:06.180Z,99485.97
2022-12-18T21:57:34.803Z,99497.16
2022-12-18T22:00:02.149Z,99491.25
2022-12-18T22:02:38.558Z,99496.72
2022-12-18T22:05:05.239Z,99489.31
2022-12-18T22:07:31.733Z,99502.69
2022-12-18T22:09:58.343Z,99493.72
2022-12-18T22:12:35.773Z,99496.44
2022-12-18T22:15:09.868Z,99489.47
2022-12-18T22:17:37.456Z,99489.56
2022-12-18T22:20:04.101Z,99490.16
2022-12-18T22:22:30.669Z,99491.19
2022-12-18T22:24:57.132Z,99476.88
2022-12-18T22:27:23.594Z,99469.44
2022-12-18T22:30:05.325Z,99476.72
2022-12-18T22:32:32.532Z,99479.84
2022-12-18T22:35:05.263Z,99484.19
2022-12-18T22:37:34.653Z,99473.63
2022-12-18T22:40:03.175Z,99482.50
2022-12-18T22:42:31.178Z,99481.84
2022-12-18T22:44:57.629Z,99475.75
2022-12-18T22:47:29.197Z,99475.94
2022-12-18T22:49:56.427Z,99476.81
2022-12-18T22:52:24.775Z,99479.56
2022-12-18T22:54:53.531Z,99488.69
2022-12-18T22:57:21.644Z,99488.09
2022-12-18T22:59:49.094Z,99489.56
2022-12-18T23:02:15.677Z,99482.69
2022-12-18T23:04:42.225Z,99483.84
2022-12-18T23:07:08.816Z,99484.09
2022-12-18T23:09:37.684Z,99479.47
2022-12-18T23:12:04.522Z,99488.25
2022-12-18T23:14:31.025Z,99482.16
2022-12-18T23:16:57.545Z,99475.22
2022-12-18T23:19:24.396Z,99483.50
2022-12-18T23:21:51.256Z,99478.03
2022-12-18T23:24:18.144Z,99485.09
2022-12-18T23:26:44.589Z,99478.75
2022-12-18T23:29:11.056Z,99476.81
2022-12-18T23:31:39.097Z,99466.44
2022-12-18T23:34:06.263Z,99469.19
2022-12-18T23:36:41.845Z,99470.13
2022-12-18T23:39:17.459Z,99472.50
2022-12-18T23:41:54.485Z,99467.47
2022-12-18T23:44:20.929Z,99463.59
2022-12-18T23:46:47.356Z,99461.94
2022-12-18T23:49:13.996Z,99457.84
2022-12-18T23:51:40.410Z,99461.38
2022-12-18T23:54:06.824Z,99456.22
2022-12-18T23:56:35.664Z,99460.53
2022-12-18T23:59:02.169Z,99450.31
